Time;durP1;ratioP1;P1;durP2;ratioP2;P2;SDS_P1;SDS_P2;PMS_P1;PMS_P2;Temp;Humidity;BMP_temperature;BMP_pressure;BME280_temperature;BME280_humidity;BME280_pressure;Samples;Min_cycle;Max_cycle;Signal;HPM_P1;HPM_P2
2024/04/04 00:00:15;;;;;;;11.88;1.95;;;;;;;7.22;61.72;100379.63;5006839;28;20072;-65
2024/04/04 00:02:40;;;;;;;6.88;1.98;;;;;;;7.01;62.92;100377.72;5006760;28;20041;-66
2024/04/04 00:05:06;;;;;;;7.22;1.80;;;;;;;7.02;62.44;100379.41;5007174;28;20641;-66
2024/04/04 00:07:32;;;;;;;9.18;1.90;;;;;;;7.38;61.38;100373.84;5003966;28;20024;-66
2024/04/04 00:09:58;;;;;;;16.92;2.67;;;;;;;6.77;63.10;100388.00;5007502;28;20387;-66
2024/04/04 00:12:27;;;;;;;10.32;2.42;;;;;;;6.86;63.00;100387.72;5007894;28;20159;-68
2024/04/04 00:14:52;;;;;;;8.73;2.28;;;;;;;6.91;62.55;100383.22;5009231;28;20049;-66
2024/04/04 00:17:18;;;;;;;10.07;1.85;;;;;;;6.76;63.04;100388.91;5010329;28;20053;-66
2024/04/04 00:19:44;;;;;;;10.35;1.50;;;;;;;7.48;60.85;100377.84;5010947;28;20373;-66
2024/04/04 00:22:10;;;;;;;9.25;2.15;;;;;;;6.98;61.65;100385.63;5010056;28;20064;-67
2024/04/04 00:24:35;;;;;;;14.23;1.55;;;;;;;6.82;62.64;100385.25;5010387;28;20048;-69
2024/04/04 00:27:01;;;;;;;8.70;1.88;;;;;;;7.15;61.25;100383.28;5009792;28;20083;-68
2024/04/04 00:29:26;;;;;;;11.48;2.45;;;;;;;6.67;62.36;100382.25;5011669;28;20481;-68
2024/04/04 00:31:52;;;;;;;10.55;1.83;;;;;;;7.06;61.50;100381.84;5014089;28;20044;-68
2024/04/04 00:34:19;;;;;;;12.20;2.45;;;;;;;7.48;60.17;100377.84;5010435;28;20978;-68
2024/04/04 00:36:46;;;;;;;9.48;2.03;;;;;;;7.25;60.91;100374.28;5010157;28;20922;-68
2024/04/04 00:39:12;;;;;;;13.38;2.65;;;;;;;6.82;61.66;100373.13;5011345;28;20546;-68
2024/04/04 00:41:38;;;;;;;9.45;1.75;;;;;;;7.28;60.39;100374.19;5011475;28;20040;-68
2024/04/04 00:44:04;;;;;;;8.35;1.80;;;;;;;6.91;61.49;100374.59;5000541;28;20045;-69
2024/04/04 00:46:30;;;;;;;9.88;1.45;;;;;;;6.84;62.19;100371.34;5025156;28;20151;-69
2024/04/04 00:48:56;;;;;;;12.18;2.45;;;;;;;7.19;61.34;100366.69;5011645;28;20090;-69
2024/04/04 00:51:22;;;;;;;9.80;2.20;;;;;;;7.28;60.61;100358.59;5027832;28;20018;-68
2024/04/04 00:53:47;;;;;;;9.60;1.40;;;;;;;7.05;61.11;100366.31;5005353;28;23470;-68
2024/04/04 00:56:13;;;;;;;9.85;1.85;;;;;;;6.91;61.04;100364.19;5015582;28;20092;-68
2024/04/04 00:58:39;;;;;;;6.25;1.27;;;;;;;7.09;60.58;100371.38;5006173;28;20060;-68
2024/04/04 01:01:04;;;;;;;14.32;1.77;;;;;;;6.71;61.82;100364.84;5012907;28;20147;-70
2024/04/04 01:03:30;;;;;;;12.90;3.10;;;;;;;7.09;60.79;100365.34;5008201;28;20134;-70
2024/04/04 01:05:56;;;;;;;13.57;1.65;;;;;;;7.33;60.27;100368.81;5015694;28;20139;-70
2024/04/04 01:08:22;;;;;;;13.38;1.80;;;;;;;7.45;59.53;100365.81;5028017;28;20136;-70
2024/04/04 01:10:48;;;;;;;5.68;1.33;;;;;;;7.20;60.43;100372.75;5023840;28;21542;-70
2024/04/04 01:13:14;;;;;;;12.98;0.93;;;;;;;7.39;59.57;100365.19;4994978;28;20040;-71
2024/04/04 01:15:40;;;;;;;6.45;1.73;;;;;;;7.37;60.08;100373.03;5008190;28;20086;-71
2024/04/04 01:18:05;;;;;;;12.05;1.50;;;;;;;7.27;60.04;100371.66;5012371;28;20045;-70
2024/04/04 01:20:31;;;;;;;8.38;1.50;;;;;;;7.03;60.62;100368.13;5009404;28;20033;-71
2024/04/04 01:22:56;;;;;;;12.43;2.05;;;;;;;7.36;59.24;100363.53;5012582;28;20144;-69
2024/04/04 01:25:22;;;;;;;10.68;1.55;;;;;;;7.35;59.88;100358.38;5007590;28;20033;-71
2024/04/04 01:27:49;;;;;;;4.40;1.02;;;;;;;7.30;59.50;100350.75;5007840;28;20037;-71
2024/04/04 01:30:16;;;;;;;10.63;2.35;;;;;;;7.34;59.79;100362.75;5011566;28;20041;-70
2024/04/04 01:32:41;;;;;;;11.00;2.13;;;;;;;7.43;59.45;100366.78;5010211;28;20041;-71
2024/04/04 01:35:07;;;;;;;18.63;2.75;;;;;;;7.53;59.09;100373.31;5010645;28;20049;-71
2024/04/04 01:37:33;;;;;;;11.93;2.58;;;;;;;7.33;59.09;100371.41;5006663;28;20495;-71
2024/04/04 01:39:58;;;;;;;10.48;2.58;;;;;;;7.47;59.07;100371.81;5015675;28;20132;-71
2024/04/04 01:42:24;;;;;;;10.45;1.80;;;;;;;6.98;60.44;100376.06;5009604;28;20037;-71
2024/04/04 01:44:49;;;;;;;9.13;1.65;;;;;;;7.48;59.35;100377.84;5009453;28;21185;-72
2024/04/04 01:47:14;;;;;;;16.23;2.03;;;;;;;6.96;61.37;100383.06;5010643;28;20098;-71
2024/04/04 01:49:40;;;;;;;5.53;1.95;;;;;;;7.14;61.12;100391.16;5010732;28;20059;-71
2024/04/04 01:52:05;;;;;;;16.67;1.80;;;;;;;7.10;61.38;100380.84;5011733;28;20049;-71
2024/04/04 01:54:31;;;;;;;10.85;1.50;;;;;;;6.95;62.04;100391.75;5007311;28;20762;-71
2024/04/04 01:56:57;;;;;;;9.15;1.83;;;;;;;6.79;62.67;100382.75;5009992;28;20033;-68
2024/04/04 01:59:22;;;;;;;8.25;2.38;;;;;;;7.21;61.44;100388.28;5013990;28;20059;-68
2024/04/04 02:01:48;;;;;;;11.95;2.08;;;;;;;6.76;62.76;100394.09;5024171;28;20025;-67
2024/04/04 02:04:13;;;;;;;10.70;2.67;;;;;;;7.15;61.43;100387.66;5025241;28;20045;-68
2024/04/04 02:06:39;;;;;;;6.65;1.88;;;;;;;7.06;61.49;100391.41;5006265;28;20029;-67
2024/04/04 02:09:04;;;;;;;6.57;2.05;;;;;;;6.72;62.27;100389.06;5011237;28;20139;-67
2024/04/04 02:11:30;;;;;;;19.13;2.35;;;;;;;7.09;61.45;100381.75;5012654;28;20044;-67
2024/04/04 02:13:56;;;;;;;11.60;3.38;;;;;;;7.22;61.27;100378.75;5005244;28;20067;-65
2024/04/04 02:16:23;;;;;;;5.95;2.30;;;;;;;7.27;60.98;100375.09;5012175;28;20466;-66
2024/04/04 02:18:51;;;;;;;9.85;2.63;;;;;;;6.76;62.54;100381.13;4998199;28;20474;-67
2024/04/04 02:21:16;;;;;;;12.57;2.08;;;;;;;6.98;61.99;100376.06;4994578;28;20228;-67
2024/04/04 02:23:42;;;;;;;10.15;2.13;;;;;;;6.76;62.28;100375.06;5009235;28;20044;-67
2024/04/04 02:26:08;;;;;;;8.95;2.40;;;;;;;7.00;61.85;100374.28;5022348;28;20079;-67
2024/04/04 02:28:33;;;;;;;10.73;2.47;;;;;;;7.21;60.83;100362.31;5008418;28;21173;-68
2024/04/04 02:30:59;;;;;;;12.93;3.10;;;;;;;7.13;60.71;100369.50;5013135;28;20425;-67
2024/04/04 02:33:24;;;;;;;13.60;2.63;;;;;;;6.88;61.08;100370.31;5010759;28;20474;-67
2024/04/04 02:35:54;;;;;;;6.38;1.60;;;;;;;6.69;62.05;100364.03;5005222;28;20925;-69
2024/04/04 02:38:22;;;;;;;11.43;3.10;;;;;;;7.18;60.14;100357.22;5009420;28;20040;-68
2024/04/04 02:40:48;;;;;;;12.43;2.42;;;;;;;7.15;60.56;100361.66;5007165;28;20036;-70
2024/04/04 02:43:15;;;;;;;7.97;2.22;;;;;;;7.18;60.49;100352.03;5013492;28;20049;-71
2024/04/04 02:45:42;;;;;;;11.25;2.70;;;;;;;6.78;61.45;100358.53;5004192;28;20029;-71
2024/04/04 02:48:07;;;;;;;15.15;2.50;;;;;;;6.54;62.28;100348.94;5028735;28;20048;-71
2024/04/04 02:50:33;;;;;;;12.43;2.13;;;;;;;6.66;62.09;100352.00;5008286;28;20153;-71
2024/04/04 02:52:58;;;;;;;12.82;2.05;;;;;;;6.58;61.86;100345.34;5007249;28;20033;-66
2024/04/04 02:55:24;;;;;;;8.55;2.42;;;;;;;6.80;60.96;100341.16;5007380;28;20590;-67
2024/04/04 02:57:50;;;;;;;14.05;2.13;;;;;;;6.34;62.34;100350.41;5008191;28;20049;-69
2024/04/04 03:00:17;;;;;;;9.57;2.30;;;;;;;6.48;61.66;100356.03;5011845;28;20036;-70
2024/04/04 03:02:43;;;;;;;13.65;2.70;;;;;;;6.46;61.58;100344.84;5019697;28;20122;-68
2024/04/04 03:05:08;;;;;;;10.02;2.22;;;;;;;6.08;62.77;100351.13;5010722;28;20041;-69
2024/04/04 03:07:34;;;;;;;10.07;2.90;;;;;;;6.36;61.85;100361.59;5009560;28;20043;-68
2024/04/04 03:09:59;;;;;;;12.93;1.73;;;;;;;6.70;60.78;100350.13;5005181;28;20906;-69
2024/04/04 03:12:25;;;;;;;12.73;2.90;;;;;;;6.76;60.52;100344.75;5007529;28;20045;-69
2024/04/04 03:14:50;;;;;;;12.05;4.05;;;;;;;6.77;60.27;100341.25;5005620;28;20032;-69
2024/04/04 03:17:16;;;;;;;16.95;2.60;;;;;;;6.17;62.01;100327.53;5010284;28;20402;-69
2024/04/04 03:19:41;;;;;;;9.88;2.40;;;;;;;6.20;62.07;100330.03;5006412;28;20041;-69
2024/04/04 03:22:06;;;;;;;6.43;1.58;;;;;;;6.32;61.48;100338.38;5009997;28;20738;-69
2024/04/04 03:24:33;;;;;;;11.27;1.95;;;;;;;6.30;60.90;100341.00;5025710;28;20061;-69
2024/04/04 03:26:58;;;;;;;10.00;2.42;;;;;;;6.09;61.41;100340.72;5004419;28;20821;-69
2024/04/04 03:29:24;;;;;;;23.15;2.58;;;;;;;6.14;62.04;100344.94;5013127;28;20037;-69
2024/04/04 03:31:49;;;;;;;12.77;2.38;;;;;;;5.96;62.22;100344.56;5004798;28;20047;-68
2024/04/04 03:34:14;;;;;;;14.85;2.40;;;;;;;6.17;61.96;100344.81;5012716;28;20060;-67
2024/04/04 03:36:41;;;;;;;11.57;2.55;;;;;;;6.07;62.70;100345.09;5004179;28;20035;-67
2024/04/04 03:39:06;;;;;;;12.52;1.35;;;;;;;6.31;61.66;100342.72;5007858;28;20833;-67
2024/04/04 03:41:32;;;;;;;18.90;1.95;;;;;;;6.64;60.82;100345.13;5009438;28;20268;-67
2024/04/04 03:43:58;;;;;;;11.65;1.95;;;;;;;6.86;60.10;100338.38;5008847;28;20170;-67
2024/04/04 03:46:23;;;;;;;21.63;3.30;;;;;;;6.50;60.56;100333.44;5011336;28;20125;-69
2024/04/04 03:48:49;;;;;;;13.45;2.08;;;;;;;6.74;60.27;100335.31;5002809;28;20095;-68
2024/04/04 03:51:14;;;;;;;13.02;2.20;;;;;;;6.29;61.58;100336.72;5014869;28;20457;-68
2024/04/04 03:53:40;;;;;;;5.97;1.45;;;;;;;6.76;60.35;100323.13;5007455;28;20090;-68
2024/04/04 03:56:09;;;;;;;17.70;1.65;;;;;;;6.67;60.18;100326.88;5017237;28;20037;-68
2024/04/04 03:58:34;;;;;;;13.35;1.77;;;;;;;6.66;59.77;100322.56;5008078;28;20045;-68
2024/04/04 04:01:00;;;;;;;8.80;1.60;;;;;;;6.64;59.55;100314.84;5012324;28;20044;-68
2024/04/04 04:03:26;;;;;;;8.88;1.42;;;;;;;6.37;60.40;100310.50;5015174;28;20048;-67
2024/04/04 04:05:51;;;;;;;11.27;2.15;;;;;;;6.76;59.31;100320.53;5006115;28;20172;-68
2024/04/04 04:08:17;;;;;;;14.68;2.42;;;;;;;6.48;59.85;100313.63;5014030;28;21593;-67
2024/04/04 04:10:42;;;;;;;6.18;1.55;;;;;;;6.52;59.59;100304.00;5009134;28;20788;-67
2024/04/04 04:13:08;;;;;;;7.57;1.52;;;;;;;6.05;60.71;100310.56;5014359;28;20033;-66
2024/04/04 04:15:33;;;;;;;12.95;1.75;;;;;;;6.47;59.53;100307.59;5011073;28;20053;-69
2024/04/04 04:17:59;;;;;;;9.32;1.65;;;;;;;6.26;59.85;100308.22;5009273;28;20459;-69
2024/04/04 04:23:09;;;;;;;8.98;1.05;;;;;;;6.20;60.45;100308.44;5011269;28;20136;-68
2024/04/04 04:25:34;;;;;;;7.78;1.23;;;;;;;5.63;61.30;100313.53;5010631;28;20099;-68
2024/04/04 04:27:59;;;;;;;7.72;1.20;;;;;;;5.92;61.27;100318.78;5006978;28;20555;-68
2024/04/04 04:30:25;;;;;;;12.18;1.83;;;;;;;6.21;60.33;100312.72;5014921;28;20091;-69
2024/04/04 04:32:51;;;;;;;7.85;1.30;;;;;;;6.09;60.59;100317.38;5007453;28;20033;-68
2024/04/04 04:35:22;;;;;;;9.35;1.83;;;;;;;6.17;59.77;100317.16;5011826;28;20086;-68
2024/04/04 04:37:48;;;;;;;9.07;1.35;;;;;;;5.75;61.20;100319.25;5007292;28;20045;-67
2024/04/04 04:40:13;;;;;;;8.70;1.48;;;;;;;5.97;60.17;100322.94;5012964;28;20041;-69
2024/04/04 04:42:39;;;;;;;8.77;0.98;;;;;;;5.94;60.36;100316.97;5012823;28;20036;-67
2024/04/04 04:45:05;;;;;;;9.10;1.52;;;;;;;5.87;60.45;100316.31;5008756;28;20789;-71
2024/04/04 04:47:30;;;;;;;7.22;1.27;;;;;;;5.45;61.80;100314.88;5011199;28;20558;-68
2024/04/04 04:49:55;;;;;;;12.05;0.85;;;;;;;5.94;60.20;100316.97;5008463;28;20098;-66
2024/04/04 04:52:21;;;;;;;4.40;1.48;;;;;;;5.38;60.77;100315.09;5013400;28;20120;-68
2024/04/04 04:54:46;;;;;;;4.95;0.93;;;;;;;5.65;60.80;100318.66;5012379;28;20021;-68
2024/04/04 04:57:12;;;;;;;10.07;1.02;;;;;;;5.77;60.50;100320.06;5014313;28;21588;-70
2024/04/04 04:59:37;;;;;;;8.75;1.45;;;;;;;5.56;60.53;100319.78;5014511;28;20060;-67
2024/04/04 05:02:03;;;;;;;11.05;1.85;;;;;;;5.49;60.79;100320.84;5006841;28;20132;-69
2024/04/04 05:04:28;;;;;;;7.95;1.75;;;;;;;5.72;60.10;100315.00;5016215;28;20040;-67
2024/04/04 05:06:54;;;;;;;13.10;1.02;;;;;;;5.63;60.24;100318.72;5004024;28;20820;-66
2024/04/04 05:09:20;;;;;;;8.77;0.95;;;;;;;5.54;60.49;100308.59;5015611;28;20048;-69
2024/04/04 05:11:45;;;;;;;6.22;0.95;;;;;;;5.82;59.35;100308.66;5012567;28;20819;-66
2024/04/04 05:14:12;;;;;;;7.18;0.88;;;;;;;5.88;58.92;100302.44;5007630;28;20033;-67
2024/04/04 05:16:39;;;;;;;4.95;1.17;;;;;;;6.01;58.62;100303.78;5012827;28;20762;-68
2024/04/04 05:19:05;;;;;;;6.80;0.90;;;;;;;5.57;59.68;100297.28;5023396;28;20090;-69
2024/04/04 05:21:30;;;;;;;4.85;1.02;;;;;;;5.57;59.78;100308.53;5015060;28;20032;-69
2024/04/04 05:23:56;;;;;;;10.10;1.40;;;;;;;5.90;58.77;100305.84;5002138;28;20518;-69
2024/04/04 05:26:21;;;;;;;8.77;0.93;;;;;;;5.96;58.82;100295.28;5016786;28;20809;-69
2024/04/04 05:28:51;;;;;;;6.35;1.25;;;;;;;5.54;59.75;100289.59;5008572;28;20816;-69
2024/04/04 05:31:17;;;;;;;10.27;0.50;;;;;;;5.69;59.28;100290.94;5015886;28;20037;-69
2024/04/04 05:33:42;;;;;;;5.20;1.10;;;;;;;5.73;59.04;100282.16;5008106;28;20044;-70
2024/04/04 05:36:08;;;;;;;6.45;0.75;;;;;;;5.62;58.86;100275.53;5002725;28;20420;-69
2024/04/04 05:38:33;;;;;;;12.32;0.90;;;;;;;5.88;58.66;100273.91;5015683;28;20373;-69
2024/04/04 05:41:04;;;;;;;5.25;0.80;;;;;;;6.24;57.94;100263.31;5002216;28;21515;-67
2024/04/04 05:43:30;;;;;;;16.43;1.07;;;;;;;5.97;58.10;100265.00;5006538;28;20048;-69
2024/04/04 05:45:55;;;;;;;4.45;1.00;;;;;;;5.99;58.17;100264.06;5007796;28;20882;-69
2024/04/04 05:48:20;;;;;;;5.47;0.85;;;;;;;6.02;57.98;100263.97;5013834;28;20128;-69
2024/04/04 05:50:46;;;;;;;8.23;0.73;;;;;;;6.23;57.17;100256.41;4994513;28;20062;-68
2024/04/04 05:53:11;;;;;;;8.95;1.00;;;;;;;6.14;57.36;100259.31;5009111;28;20616;-70
2024/04/04 05:55:37;;;;;;;6.22;0.70;;;;;;;6.41;56.89;100252.41;5008471;28;20865;-69
2024/04/04 05:58:02;;;;;;;1.90;0.55;;;;;;;6.36;56.83;100252.56;4989525;28;20447;-69
2024/04/04 06:00:28;;;;;;;5.55;0.85;;;;;;;6.35;56.75;100250.88;5015688;28;20024;-69
2024/04/04 06:02:53;;;;;;;11.00;0.63;;;;;;;6.56;56.48;100254.50;4995717;28;20044;-69
2024/04/04 06:05:18;;;;;;;4.85;1.02;;;;;;;6.67;55.78;100251.56;5013400;28;20556;-69
2024/04/04 06:07:44;;;;;;;7.80;0.85;;;;;;;6.31;56.57;100238.91;5013270;28;20664;-70
2024/04/04 06:10:09;;;;;;;5.55;1.17;;;;;;;6.89;55.27;100236.94;5007782;28;21300;-69
2024/04/04 06:12:35;;;;;;;6.82;0.65;;;;;;;7.09;55.15;100232.78;5014575;28;20037;-69
2024/04/04 06:15:00;;;;;;;1.67;0.35;;;;;;;7.39;54.07;100232.56;5003461;28;20051;-69
2024/04/04 06:17:26;;;;;;;5.00;1.15;;;;;;;7.56;53.62;100230.25;5015070;28;20044;-69
2024/04/04 06:19:52;;;;;;;2.75;0.40;;;;;;;7.46;54.13;100236.66;5008561;28;20071;-70
2024/04/04 06:22:17;;;;;;;9.25;0.65;;;;;;;7.50;53.21;100233.03;5017435;28;20068;-69
2024/04/04 06:24:44;;;;;;;3.83;0.38;;;;;;;6.66;55.22;100231.66;5011698;28;20410;-69
2024/04/04 06:27:10;;;;;;;3.97;0.40;;;;;;;6.80;55.03;100231.22;5008214;28;20094;-69
2024/04/04 06:29:35;;;;;;;4.15;0.45;;;;;;;6.88;54.96;100222.22;5017914;28;20025;-69
2024/04/04 06:32:04;;;;;;;2.88;0.20;;;;;;;6.86;54.95;100229.25;5004544;28;20544;-69
2024/04/04 06:34:30;;;;;;;4.88;0.40;;;;;;;7.10;54.64;100226.69;5022549;28;20526;-69
2024/04/04 06:36:55;;;;;;;1.70;0.40;;;;;;;7.22;54.09;100221.06;5005248;28;20048;-69
2024/04/04 06:39:21;;;;;;;10.75;1.50;;;;;;;7.11;54.69;100220.59;5017064;28;20498;-69
2024/04/04 06:41:46;;;;;;;10.63;1.27;;;;;;;6.74;55.74;100221.88;5012086;28;20033;-68
2024/04/04 06:44:12;;;;;;;1.90;0.50;;;;;;;6.84;55.54;100217.19;5006857;28;20842;-69
2024/04/04 06:46:37;;;;;;;3.28;0.30;;;;;;;6.96;55.12;100208.16;4995057;28;20629;-69
2024/04/04 06:49:04;;;;;;;3.00;0.65;;;;;;;6.59;56.46;100219.81;5007676;28;20079;-69
2024/04/04 06:51:33;;;;;;;4.05;0.25;;;;;;;6.81;56.01;100218.16;5010977;28;20621;-69
2024/04/04 06:53:58;;;;;;;8.18;0.50;;;;;;;6.87;55.11;100217.13;5006611;28;20699;-69
2024/04/04 06:56:24;;;;;;;7.00;0.63;;;;;;;6.81;55.36;100217.31;5028601;28;20033;-69
2024/04/04 06:58:50;;;;;;;5.80;0.70;;;;;;;6.63;56.11;100216.19;5012443;28;20052;-69
2024/04/04 07:01:15;;;;;;;5.90;0.50;;;;;;;6.44;56.85;100219.44;5011316;28;20170;-69
2024/04/04 07:03:41;;;;;;;4.07;0.40;;;;;;;6.80;56.07;100215.63;5008524;28;20041;-69
2024/04/04 07:06:06;;;;;;;7.13;0.73;;;;;;;6.25;56.97;100218.28;5004027;28;20151;-68
2024/04/04 07:08:32;;;;;;;5.30;0.30;;;;;;;6.79;56.49;100214.75;5009556;28;20111;-69
2024/04/04 07:10:59;;;;;;;5.43;0.30;;;;;;;6.81;56.08;100206.94;5018036;28;20024;-69
2024/04/04 07:13:24;;;;;;;4.35;0.55;;;;;;;7.06;55.26;100201.72;5011660;28;20036;-69
2024/04/04 07:16:03;;;;;;;6.07;0.40;;;;;;;6.68;57.03;100202.16;5015153;28;20042;-69
2024/04/04 07:18:30;;;;;;;2.55;0.47;;;;;;;6.71;56.31;100198.63;5010096;28;20551;-69
2024/04/04 07:20:56;;;;;;;3.83;0.40;;;;;;;6.37;57.78;100196.31;5004445;28;20029;-70
2024/04/04 07:23:21;;;;;;;4.30;0.68;;;;;;;6.73;57.18;100189.03;5008577;28;20384;-69
2024/04/04 07:25:51;;;;;;;4.70;0.60;;;;;;;6.85;57.23;100186.00;5043975;28;20513;-69
2024/04/04 07:28:17;;;;;;;10.60;0.65;;;;;;;6.66;57.81;100183.19;4998396;28;20815;-69
2024/04/04 07:30:42;;;;;;;3.85;0.57;;;;;;;6.33;59.14;100185.19;5010739;28;20666;-69
2024/04/04 07:33:08;;;;;;;1.75;0.38;;;;;;;6.57;58.57;100185.25;4984983;28;20052;-70
2024/04/04 07:35:33;;;;;;;2.17;0.20;;;;;;;6.87;58.03;100176.38;5025706;28;20032;-70
2024/04/04 07:37:58;;;;;;;1.35;0.22;;;;;;;6.67;58.49;100182.28;5003860;28;20102;-70
2024/04/04 07:40:24;;;;;;;9.20;1.80;;;;;;;7.16;57.37;100171.06;5010936;28;20091;-70
2024/04/04 07:42:49;;;;;;;7.68;0.65;;;;;;;7.15;57.49;100174.53;4996325;28;20179;-70
2024/04/04 07:45:15;;;;;;;7.28;0.82;;;;;;;6.97;58.39;100169.09;5000176;28;21522;-70
2024/04/04 07:47:40;;;;;;;8.60;1.00;;;;;;;6.46;59.63;100170.03;5027894;28;20052;-69
2024/04/04 07:50:07;;;;;;;5.70;0.52;;;;;;;7.09;58.12;100165.22;4992396;28;20048;-70
2024/04/04 07:52:33;;;;;;;2.50;1.10;;;;;;;6.95;58.96;100167.47;5006797;28;20471;-69
2024/04/04 07:54:59;;;;;;;3.25;0.52;;;;;;;6.66;59.99;100166.75;4998005;28;20033;-72
2024/04/04 07:57:25;;;;;;;2.78;0.22;;;;;;;6.75;59.48;100157.78;5009687;28;20052;-70
2024/04/04 07:59:50;;;;;;;5.60;0.85;;;;;;;7.18;58.43;100153.66;5008476;28;20198;-70
2024/04/04 08:02:17;;;;;;;4.88;1.05;;;;;;;7.13;58.16;100140.81;4999887;28;20037;-70
2024/04/04 08:04:43;;;;;;;1.45;0.28;;;;;;;7.04;58.91;100146.34;5007902;28;20136;-70
2024/04/04 08:07:08;;;;;;;2.00;0.45;;;;;;;7.24;58.45;100148.19;4994423;28;20033;-70
2024/04/04 08:09:34;;;;;;;3.33;0.22;;;;;;;7.21;58.77;100143.13;5012809;28;20029;-70
2024/04/04 08:12:00;;;;;;;3.78;0.45;;;;;;;7.29;59.00;100148.91;5005990;28;20387;-70
2024/04/04 08:14:27;;;;;;;6.10;0.68;;;;;;;7.09;59.34;100147.88;5006558;28;20431;-70
2024/04/04 08:16:53;;;;;;;2.85;1.20;;;;;;;7.42;58.38;100142.31;5004367;28;20653;-71
2024/04/04 08:19:18;;;;;;;5.05;0.60;;;;;;;7.38;58.18;100132.94;5001419;28;20043;-70
2024/04/04 08:21:43;;;;;;;6.38;0.77;;;;;;;7.11;59.08;100137.44;5006758;28;20049;-69
2024/04/04 08:24:09;;;;;;;5.28;1.20;;;;;;;6.63;60.79;100133.94;4998021;28;20051;-69
2024/04/04 08:26:34;;;;;;;8.30;1.33;;;;;;;6.93;59.88;100135.50;5022037;28;20045;-69
2024/04/04 08:29:00;;;;;;;4.07;1.00;;;;;;;7.44;59.23;100129.25;5009352;28;20039;-70
2024/04/04 08:31:25;;;;;;;2.58;1.13;;;;;;;7.45;59.48;100134.41;5020304;28;20098;-69
2024/04/04 08:33:51;;;;;;;2.75;1.25;;;;;;;7.49;59.84;100127.34;5007318;28;20037;-69
2024/04/04 08:36:16;;;;;;;3.40;1.77;;;;;;;7.62;59.49;100131.16;5004513;28;20660;-69
2024/04/04 08:38:42;;;;;;;5.50;1.30;;;;;;;7.56;59.18;100123.63;5012631;28;20506;-70
2024/04/04 08:41:09;;;;;;;6.20;1.33;;;;;;;7.65;59.19;100112.84;5007143;28;20037;-70
2024/04/04 08:43:38;;;;;;;5.38;2.20;;;;;;;7.52;59.84;100114.19;5009213;28;20102;-69
2024/04/04 08:46:07;;;;;;;7.30;1.70;;;;;;;7.26;60.80;100107.41;5006467;28;20091;-71
2024/04/04 08:48:33;;;;;;;3.42;1.80;;;;;;;7.15;61.21;100107.81;5011073;28;20634;-69
2024/04/04 08:50:59;;;;;;;9.38;2.00;;;;;;;7.39;60.89;100105.19;5013857;28;20032;-69
2024/04/04 08:53:28;;;;;;;4.43;1.83;;;;;;;7.54;60.42;100102.00;5015260;28;20037;-69
2024/04/04 08:55:54;;;;;;;6.45;2.42;;;;;;;7.34;61.04;100089.78;5013101;28;20052;-69
2024/04/04 08:58:22;;;;;;;3.63;2.50;;;;;;;7.37;61.47;100083.59;4998605;28;20037;-70
2024/04/04 09:00:49;;;;;;;8.07;2.65;;;;;;;7.35;61.42;100091.44;5015552;28;20143;-69
2024/04/04 09:03:15;;;;;;;3.95;1.98;;;;;;;7.55;60.82;100095.91;5001544;28;20845;-70
2024/04/04 09:05:50;;;;;;;4.50;1.92;;;;;;;7.62;60.91;100088.69;5013701;28;20690;-70
2024/04/04 09:08:16;;;;;;;3.13;1.65;;;;;;;7.57;61.11;100088.88;5017950;28;20029;-70
2024/04/04 09:10:50;;;;;;;2.58;2.03;;;;;;;7.36;61.47;100085.34;5030841;28;20162;-69
2024/04/04 09:13:17;;;;;;;2.83;2.63;;;;;;;7.28;61.95;100080.44;5001233;28;20048;-69
2024/04/04 09:15:42;;;;;;;4.47;3.17;;;;;;;7.13;62.91;100088.81;5007162;28;20113;-69
2024/04/04 09:18:10;;;;;;;2.75;2.05;;;;;;;6.83;63.97;100089.09;5002840;28;20580;-69
2024/04/04 09:20:38;;;;;;;3.85;2.72;;;;;;;7.48;62.07;100078.81;5015890;28;20501;-69
2024/04/04 09:23:06;;;;;;;5.20;2.17;;;;;;;7.49;62.36;100086.56;5011895;28;20048;-69
2024/04/04 09:25:32;;;;;;;6.38;2.10;;;;;;;7.63;61.57;100078.25;5014711;28;20037;-70
2024/04/04 09:28:00;;;;;;;6.47;2.97;;;;;;;7.16;63.33;100075.72;5011513;28;20127;-70
2024/04/04 09:30:27;;;;;;;3.50;2.17;;;;;;;7.59;62.38;100068.88;5007187;28;22351;-69
2024/04/04 09:32:54;;;;;;;3.67;2.30;;;;;;;7.03;63.78;100069.31;5011325;28;20040;-69
2024/04/04 09:35:21;;;;;;;5.30;2.50;;;;;;;7.07;64.57;100068.28;5001634;28;20029;-70
2024/04/04 09:37:47;;;;;;;5.72;3.03;;;;;;;7.72;62.61;100059.66;5013578;28;20033;-72
2024/04/04 09:40:13;;;;;;;4.57;2.58;;;;;;;7.55;63.22;100056.91;5003118;28;20037;-70
2024/04/04 09:42:42;;;;;;;3.03;2.42;;;;;;;7.53;62.92;100056.06;5013431;28;20037;-70
2024/04/04 09:45:12;;;;;;;4.60;3.08;;;;;;;7.97;61.82;100050.84;5002058;28;20036;-70
2024/04/04 09:47:47;;;;;;;4.55;2.70;;;;;;;8.07;61.83;100046.94;4992095;28;20530;-70
2024/04/04 09:50:20;;;;;;;4.20;2.85;;;;;;;8.05;61.81;100056.56;5010508;28;20115;-70
2024/04/04 09:52:46;;;;;;;4.47;2.72;;;;;;;7.76;62.48;100056.91;4992931;28;20045;-70
2024/04/04 09:55:18;;;;;;;4.07;3.15;;;;;;;8.00;62.00;100053.28;5001346;28;20029;-71
2024/04/04 09:57:45;;;;;;;11.07;3.70;;;;;;;7.81;62.46;100049.78;5012848;28;20045;-70
2024/04/04 10:00:19;;;;;;;4.85;3.40;;;;;;;8.25;62.29;100049.63;5003218;28;20670;-70
2024/04/04 10:02:54;;;;;;;7.38;3.80;;;;;;;8.34;61.47;100054.47;5014103;28;20041;-70
2024/04/04 10:05:34;;;;;;;6.00;3.35;;;;;;;8.36;61.80;100058.69;4999512;28;20037;-70
2024/04/04 10:08:11;;;;;;;3.72;3.38;;;;;;;8.42;61.21;100062.78;5009730;28;20127;-71
2024/04/04 10:10:37;;;;;;;3.80;3.33;;;;;;;8.18;62.48;100051.66;5012698;28;20033;-70
2024/04/04 10:13:08;;;;;;;3.60;3.25;;;;;;;8.26;62.24;100057.41;5010534;28;20326;-70
2024/04/04 10:15:43;;;;;;;5.90;3.55;;;;;;;8.50;61.81;100065.06;5007978;28;20029;-71
2024/04/04 10:18:11;;;;;;;4.20;2.97;;;;;;;8.80;61.36;100057.66;4996466;28;20041;-70
2024/04/04 10:20:39;;;;;;;3.38;2.83;;;;;;;8.15;62.47;100059.63;4994676;28;20434;-71
2024/04/04 10:23:08;;;;;;;4.22;3.75;;;;;;;8.05;63.01;100061.78;5009816;28;20049;-70
2024/04/04 10:25:35;;;;;;;4.15;3.67;;;;;;;8.33;62.52;100065.78;5006092;28;20052;-70
2024/04/04 10:28:09;;;;;;;5.22;3.20;;;;;;;8.13;63.04;100058.84;5009803;28;20032;-70
2024/04/04 10:30:36;;;;;;;4.38;3.30;;;;;;;7.58;65.34;100059.38;5004318;28;20032;-73
2024/04/04 10:33:13;;;;;;;6.75;3.47;;;;;;;7.93;64.55;100054.47;5009884;28;20059;-70
2024/04/04 10:35:40;;;;;;;3.90;3.38;;;;;;;8.13;63.65;100054.47;4994707;28;20041;-72
2024/04/04 10:38:14;;;;;;;6.45;3.53;;;;;;;8.48;62.79;100059.06;5009227;28;20072;-70
2024/04/04 10:40:41;;;;;;;3.72;3.10;;;;;;;8.27;63.37;100053.91;5012100;28;20698;-70
2024/04/04 10:43:08;;;;;;;4.45;3.97;;;;;;;8.46;62.82;100058.28;5009954;28;20045;-70
2024/04/04 10:45:34;;;;;;;3.47;3.17;;;;;;;8.32;63.26;100061.50;5002968;28;20047;-70
2024/04/04 10:48:01;;;;;;;3.83;3.20;;;;;;;8.19;63.45;100061.19;5011189;28;20080;-70
2024/04/04 10:50:29;;;;;;;3.53;3.03;;;;;;;8.19;63.28;100062.94;5006315;28;20147;-70
2024/04/04 10:52:55;;;;;;;3.92;3.38;;;;;;;8.27;63.68;100058.22;5027102;28;20048;-70
2024/04/04 10:55:21;;;;;;;5.50;3.80;;;;;;;8.01;63.70;100055.00;5016358;28;20062;-70
2024/04/04 10:57:51;;;;;;;4.38;3.25;;;;;;;8.85;62.20;100054.81;5011993;28;20493;-70
2024/04/04 11:00:19;;;;;;;13.43;7.40;;;;;;;8.89;62.01;100057.22;5001954;28;20513;-70
2024/04/04 11:02:48;;;;;;;4.60;3.80;;;;;;;8.28;63.59;100054.72;5011743;28;20550;-70
2024/04/04 11:05:13;;;;;;;3.33;2.90;;;;;;;8.19;64.41;100058.56;4999287;28;20029;-70
2024/04/04 11:07:42;;;;;;;3.38;2.88;;;;;;;8.53;63.69;100057.94;5001161;28;20443;-70
2024/04/04 11:10:08;;;;;;;4.43;3.25;;;;;;;8.94;62.41;100052.66;5023437;28;20112;-70
2024/04/04 11:12:34;;;;;;;5.35;3.40;;;;;;;9.17;61.66;100055.94;5003262;28;20128;-70
2024/04/04 11:15:07;;;;;;;3.75;3.20;;;;;;;8.65;63.09;100058.31;5007778;28;20467;-71
2024/04/04 11:17:34;;;;;;;5.10;2.92;;;;;;;8.76;63.09;100056.94;5002161;28;20353;-70
2024/04/04 11:20:04;;;;;;;3.40;2.70;;;;;;;8.39;64.19;100065.53;5008089;28;20041;-70
2024/04/04 11:22:32;;;;;;;4.18;3.25;;;;;;;8.54;63.80;100057.03;4998005;28;20329;-70
2024/04/04 11:24:57;;;;;;;6.28;3.25;;;;;;;8.51;63.40;100049.34;5003307;28;20467;-70
2024/04/04 11:27:25;;;;;;;6.07;2.53;;;;;;;8.44;63.84;100053.13;5000821;28;20037;-69
2024/04/04 11:29:50;;;;;;;4.03;3.63;;;;;;;9.04;62.97;100047.00;5007432;28;20091;-70